Nearby METAR Reports

 

LEXJ - Santander/Paraya, Spain
Distancia a la estación: ESE 6km
Actualizado: 26/06/2017 22:00
Muy nuboso
Muy nuboso
 Viento del O
Viento: O 7 km/h
Temperatura: 20°C
Rocío: 16°C
Humedad: 78%
Barómetro: 1012 hPa
Nubes: Muy nuboso
Visibilidad: 10 km
Detalle Nubes: Nubes dispersas 914 m
Muy nuboso 1372 m
2017/06/26 20:00 LEXJ 262000Z 27004KT 9999 FEW030 BKN045 20/16 Q1012
LEBB - Bilbao/Sondica, Spain
Distancia a la estación: ESE 80km
Actualizado: 26/06/2017 22:00
Nubes dispersas
Nubes dispersas
 Viento del calm
Viento: Calma
Temperatura: 21°C
Rocío: 18°C
Humedad: 83%
Barómetro: 1012 hPa
Nubes: Nubes dispersas
Visibilidad: 10 km
Detalle Nubes: Nubes dispersas 914 m
2017/06/26 20:00 LEBB 262000Z 00000KT 9999 FEW030 21/18 Q1012 NOSIG
 
LEZG - Zaragoza (mil/Ci, Spain
Distancia a la estación: NNE 176km
Actualizado: 26/06/2017 22:00
Nubes dispersas
Nubes dispersas
 Viento del ONO
Viento: ONO 6 km/h
Temperatura: 26°C
Rocío: 19°C
Humedad: 65%
Barómetro: 1010 hPa
Nubes: Nubes dispersas
Visibilidad: 10 km
Detalle Nubes: Nubes dispersas 2134 m
2017/06/26 20:00 LEZG 262000Z 29003KT 9999 FEW070 26/19 Q1010
LEVT - Vitoria, Spain
Distancia a la estación: ESE 114km
Actualizado: 26/06/2017 22:00
Parcialmente nuboso
Parcialmente nuboso
 Viento del NE
Viento: NE 11 km/h
Temperatura: 18°C
Rocío: 16°C
Humedad: 88%
Barómetro: 1013 hPa
Nubes: Parcialmente nuboso
Visibilidad: 10 km
Detalle Nubes: Nubes dispersas 518 m
Parcialmente nuboso 914 m
2017/06/26 20:00 LEVT 262000Z 05006KT 020V080 9999 FEW017 SCT030 18/16 Q1013
 
LEBG - Burgos/Villafria, Spain
Distancia a la estación: S 122km
Actualizado: 26/06/2017 22:00
Despejado
Despejado
 Viento del NE
Viento: NE 19 km/h
Temperatura: 19°C
Rocío: 15°C
Humedad: 78%
Barómetro: 1013 hPa
Resumen: Despejado
Visibilidad: greater than 10 km
2017/06/26 20:00 LEBG 262000Z AUTO 05010KT CAVOK 19/15 Q1013
LELO - Logrono/Agoncill, Spain
Distancia a la estación: SE 169km
Actualizado: 26/06/2017 22:00
Nubes dispersas
Nubes dispersas
 Viento del calm
Viento: Calma
Temperatura: 23°C
Rocío: 18°C
Humedad: 74%
Barómetro: 1011 hPa
Nubes: Nubes dispersas
Visibilidad: 10 km
Detalle Nubes: Nubes dispersas 610 m
2017/06/26 20:00 LELO 262000Z 00000KT 9999 FEW020 23/18 Q1011
 
LESO - San Sebastian/Fu, Spain
Distancia a la estación: E 169km
Actualizado: 26/06/2017 22:00
Muy nuboso
Muy nuboso
 Viento del OSO
Viento: OSO 9 km/h
Temperatura: 22°C
Rocío: 19°C
Humedad: 83%
Barómetro: 1012 hPa
Nubes: Muy nuboso
Visibilidad: 10 km
Detalle Nubes: Nubes dispersas 610 m
Muy nuboso 853 m
Muy nuboso 1067 m
2017/06/26 20:00 LESO 262000Z AUTO 25005KT 200V320 9999 FEW020/// BKN028/// BKN035/// 22/19 Q1012
LEAS - Asturias/Aviles, Spain
Distancia a la estación: O 172km
Actualizado: 26/06/2017 22:00
Muy nuboso
Muy nuboso
 Viento del calm
Viento: Calma
Temperatura: 18°C
Rocío: 16°C
Humedad: 88%
Barómetro: 1013 hPa
Nubes: Muy nuboso
Visibilidad: 10 km
Detalle Nubes: Nubes dispersas 396 m
Muy nuboso 914 m
2017/06/26 20:00 LEAS 262000Z 00000KT 9999 FEW013 BKN030 18/16 Q1013 NOSIG
 
LELN - Leon/Virgen Cami, Spain
Distancia a la estación: SO 174km
Actualizado: 26/06/2017 21:00
NOT Current
Nubes dispersas
Nubes dispersas
 Viento del calm
Viento: Calma
Temperatura: 22°C
Rocío: 15°C
Humedad: 65%
Barómetro: 1012 hPa
Nubes: Nubes dispersas
Visibilidad: 10 km
Detalle Nubes: Nubes dispersas 1676 m
2017/06/26 19:00 LELN 261900Z 00000KT 9999 FEW055 22/15 Q1012
LFBZ - Biarritz/Anglet, France
Distancia a la estación: E 191km
Actualizado: 26/06/2017 22:00
Cubierto
Cubierto
 Viento del O
Viento: O 15 km/h
Temperatura: 21°C
Rocío: 18°C
Humedad: 83%
Barómetro: 1012 hPa
Nubes: Cubierto
Visibilidad: 10 km
Detalle Nubes: Nubes dispersas 457 m
Muy nuboso 884 m
Cubierto 1067 m
2017/06/26 20:00 LFBZ 262000Z AUTO 26008KT 220V290 9999 FEW015 BKN029 OVC035 21/18 Q1012 BECMG BKN005
 
LEPP - Pamplona/Noain, Spain
Distancia a la estación: ESE 199km
Actualizado: 26/06/2017 22:00
Nubes dispersas
Nubes dispersas
 Viento del NO
Viento: NO 7 km/h
Temperatura: 19°C
Rocío: 17°C
Humedad: 88%
Barómetro: 1013 hPa
Nubes: Nubes dispersas
Visibilidad: 10 km
Detalle Nubes: Nubes dispersas 610 m
2017/06/26 20:00 LEPP 262000Z 31004KT 280V350 9999 FEW020 19/17 Q1013
LEBL - Barcelona Airpor, Spain
Distancia a la estación: ESE 554km
Actualizado: 26/06/2017 22:00
Nubes dispersas
Nubes dispersas
 Viento del SSO
Viento: SSO 7 km/h
Temperatura: 26°C
Rocío: 21°C
Humedad: 74%
Barómetro: 1009 hPa
Nubes: Nubes dispersas
Visibilidad: 10 km
Detalle Nubes: Nubes dispersas 762 m
2017/06/26 20:00 LEBL 262000Z 20004KT 170V230 9999 FEW025 26/21 Q1009 NOSIG
 
LEMD - Madrid/Barajas, Spain
Distancia a la estación: S 325km
Actualizado: 26/06/2017 22:00
Despejado
Despejado
 Viento del SO
Viento: SO 19 km/h, Racha: 37 km/h
Temperatura: 29°C
Rocío: 6°C
Humedad: 23%
Barómetro: 1011 hPa
Resumen: Despejado
Visibilidad: greater than 10 km
2017/06/26 20:00 LEMD 262000Z 23010G20KT 210V340 CAVOK 29/06 Q1011 NOSIG
LPPT - Lisbon/Portela, Portugal
Distancia a la estación: SO 663km
Actualizado: 26/06/2017 22:00
Nubes dispersas
Nubes dispersas
 Viento del NO
Viento: NO 13 km/h
Temperatura: 19°C
Rocío: 14°C
Humedad: 73%
Barómetro: 1014 hPa
Nubes: Nubes dispersas
Visibilidad: 10 km
Detalle Nubes: Nubes dispersas 610 m
2017/06/26 20:00 LPPT 262000Z 31007KT 280V340 9999 FEW020 19/14 Q1014
 
LECO - La Coruna/Alvedr, Spain
Distancia a la estación: O 349km
Actualizado: 26/06/2017 22:00
Muy nuboso
Muy nuboso
 Viento del N
Viento: N 6 km/h
Temperatura: 18°C
Rocío: 16°C
Humedad: 88%
Barómetro: 1013 hPa
Nubes: Muy nuboso
Visibilidad: 10 km
Detalle Nubes: Parcialmente nuboso 305 m
Muy nuboso 975 m
2017/06/26 20:00 LECO 262000Z 35003KT 300V040 9999 SCT010 BKN032 18/16 Q1013 TEMPO BKN012
LEST - Santiago/Labacol, Spain
Distancia a la estación: O 358km
Actualizado: 26/06/2017 22:00
Light drizzle, Cubierto
Light drizzle, Cubierto
 Viento del varies
Viento: varies 4 km/h
Temperatura: 17°C
Rocío: 16°C
Humedad: 94%
Barómetro: 1014 hPa
Resumen: Light Drizzle
Nubes: Cubierto
Visibilidad: 6 km
Detalle Nubes: Muy nuboso 152 m
Cubierto 335 m
2017/06/26 20:00 LEST 262000Z VRB02KT 6000 -DZ BKN005 OVC011 17/16 Q1014 TEMPO 3000 BR SCT014